Time;durP1;ratioP1;P1;durP2;ratioP2;P2;SDS_P1;SDS_P2;PMS_P1;PMS_P2;Temp;Humidity;BMP_temperature;BMP_pressure;BME280_temperature;BME280_humidity;BME280_pressure;Samples;Min_cycle;Max_cycle;Signal;HPM_P1;HPM_P2
2023/04/10 00:02:20;;;;;;;46.28;28.88;;;6.00;99.90;;;;;;5095857;28;20040;-24
2023/04/10 00:04:45;;;;;;;46.38;28.42;;;5.80;1.00;;;;;;5095854;28;20040;-25
2023/04/10 00:07:11;;;;;;;46.13;29.70;;;5.90;1.00;;;;;;5082594;28;20119;-24
2023/04/10 00:09:37;;;;;;;50.97;30.55;;;5.90;1.00;;;;;;5075423;28;20048;-24
2023/04/10 00:12:04;;;;;;;44.80;30.00;;;5.90;1.00;;;;;;5075361;28;20184;-24
2023/04/10 00:14:30;;;;;;;50.22;30.85;;;5.80;1.00;;;;;;5057816;28;20044;-24
2023/04/10 00:16:55;;;;;;;50.53;30.85;;;5.90;1.00;;;;;;5075386;28;20099;-24
2023/04/10 00:19:21;;;;;;;49.47;29.77;;;5.80;1.00;;;;;;5075214;28;20421;-24
2023/04/10 00:21:47;;;;;;;45.03;29.35;;;5.80;1.00;;;;;;5057663;28;20102;-24
2023/04/10 00:24:13;;;;;;;54.53;32.95;;;5.80;1.00;;;;;;5087995;28;20040;-24
2023/04/10 00:26:39;;;;;;;53.83;31.17;;;5.80;1.00;;;;;;5095210;28;20055;-24
2023/04/10 00:29:05;;;;;;;50.38;31.15;;;5.80;1.00;;;;;;5095377;28;20055;-24
2023/04/10 00:31:31;;;;;;;59.95;33.35;;;5.80;1.00;;;;;;5077518;28;20047;-24
2023/04/10 00:33:56;;;;;;;49.25;31.45;;;5.70;1.00;;;;;;5077454;28;20113;-24
2023/04/10 00:36:22;;;;;;;50.70;32.37;;;5.70;1.00;;;;;;5095526;28;20044;-24
2023/04/10 00:38:48;;;;;;;51.78;31.88;;;5.70;1.00;;;;;;5095745;28;20401;-24
2023/04/10 00:41:15;;;;;;;51.47;32.53;;;5.60;1.00;;;;;;5082067;28;20055;-24
2023/04/10 00:43:41;;;;;;;54.10;32.78;;;5.60;1.00;;;;;;5074798;28;20055;-24
2023/04/10 00:46:07;;;;;;;53.25;32.72;;;5.60;1.00;;;;;;5056987;28;20044;-24
2023/04/10 00:48:33;;;;;;;52.63;32.35;;;5.50;1.00;;;;;;5057138;28;20051;-24
2023/04/10 00:50:59;;;;;;;52.00;33.33;;;5.50;1.00;;;;;;5074695;28;20052;-24
2023/04/10 00:53:26;;;;;;;53.55;33.10;;;5.50;1.00;;;;;;5057401;28;20049;-24
2023/04/10 00:55:52;;;;;;;53.55;32.97;;;5.40;1.00;;;;;;5074591;28;20040;-24
2023/04/10 00:58:18;;;;;;;53.10;31.98;;;5.40;1.00;;;;;;5087746;28;20040;-24
2023/04/10 01:00:44;;;;;;;54.10;33.73;;;5.40;1.00;;;;;;5043383;28;20055;-24
2023/04/10 01:03:11;;;;;;;50.85;33.17;;;5.40;1.00;;;;;;5094761;28;20130;-24
2023/04/10 01:05:57;;;;;;;54.73;34.13;;;5.40;1.00;;;;;;5094653;28;20048;-24
2023/04/10 01:08:47;;;;;;;56.33;33.97;;;5.40;1.00;;;;;;5094288;28;20101;-24
2023/04/10 01:11:29;;;;;;;55.58;34.20;;;5.40;1.00;;;;;;5083116;28;20119;-24
2023/04/10 01:14:13;;;;;;;58.88;35.97;;;5.30;1.00;;;;;;5076576;28;20049;-24
2023/04/10 01:16:50;;;;;;;54.95;35.50;;;5.30;1.00;;;;;;5094500;28;20048;-24
2023/04/10 01:19:44;;;;;;;57.00;34.83;;;5.30;1.00;;;;;;5094929;28;20421;-24
2023/04/10 01:22:14;;;;;;;54.15;32.83;;;5.20;1.00;;;;;;5094162;28;20089;-24
2023/04/10 01:25:08;;;;;;;53.67;34.30;;;5.30;1.00;;;;;;5094273;28;20134;-24
2023/04/10 01:28:23;;;;;;;57.67;34.95;;;5.20;1.00;;;;;;5076916;28;20063;-25
2023/04/10 01:30:58;;;;;;;55.72;34.60;;;5.20;46.00;;;;;;5092685;28;20040;-24
2023/04/10 01:33:33;;;;;;;57.38;34.88;;;5.20;1.00;;;;;;5074808;28;20086;-24
2023/04/10 01:36:01;;;;;;;53.40;33.07;;;5.20;1.00;;;;;;5074569;28;20044;-25
2023/04/10 01:38:30;;;;;;;56.50;33.57;;;5.10;1.00;;;;;;5073800;28;20083;-24
2023/04/10 01:40:58;;;;;;;59.08;34.80;;;5.20;1.00;;;;;;5073826;28;20518;-24
2023/04/10 01:43:25;;;;;;;53.80;34.53;;;5.10;1.00;;;;;;5055677;28;20041;-24
2023/04/10 01:45:52;;;;;;;53.50;33.78;;;5.10;1.00;;;;;;5073845;28;20059;-24
2023/04/10 01:48:19;;;;;;;50.22;34.80;;;5.10;1.00;;;;;;5061076;28;20108;-24
2023/04/10 01:50:46;;;;;;;57.42;36.53;;;5.00;1.00;;;;;;5093922;28;20052;-24
2023/04/10 01:53:12;;;;;;;57.72;35.65;;;5.00;1.00;;;;;;5094209;28;20052;-24
2023/04/10 01:55:39;;;;;;;52.58;35.10;;;5.00;1.00;;;;;;5093913;28;20043;-24
2023/04/10 01:58:06;;;;;;;54.88;35.75;;;5.00;1.00;;;;;;5076279;28;20052;-24
2023/04/10 02:00:41;;;;;;;59.15;36.28;;;4.90;1.00;;;;;;5075895;28;20079;-23
2023/04/10 02:03:08;;;;;;;60.35;37.60;;;4.90;22.50;;;;;;5093832;28;20516;-24
2023/04/10 02:06:06;;;;;;;57.08;36.92;;;4.90;11.00;;;;;;5085751;28;20502;-23
2023/04/10 02:09:06;;;;;;;57.72;36.67;;;4.90;84.50;;;;;;5067354;28;20085;-23
2023/04/10 02:11:48;;;;;;;58.78;37.78;;;4.90;99.90;;;;;;5041214;28;20052;-23
2023/04/10 02:14:17;;;;;;;59.30;37.80;;;4.80;24.00;;;;;;5055656;28;20040;-23
2023/04/10 02:16:43;;;;;;;60.00;36.97;;;4.80;87.00;;;;;;5055776;28;20051;-23
2023/04/10 02:19:11;;;;;;;62.70;37.10;;;4.80;99.90;;;;;;5073400;28;20049;-23
2023/04/10 02:21:38;;;;;;;60.40;37.92;;;4.80;99.90;;;;;;5073363;28;20083;-23
2023/04/10 02:24:05;;;;;;;59.72;37.80;;;4.80;99.00;;;;;;5092600;28;20058;-23
2023/04/10 02:26:43;;;;;;;56.10;36.78;;;4.80;99.90;;;;;;5093217;28;20051;-23
2023/04/10 02:29:09;;;;;;;64.00;38.65;;;4.80;99.90;;;;;;5075794;28;20131;-23
2023/04/10 02:31:36;;;;;;;58.25;37.63;;;4.80;99.90;;;;;;5093604;28;20126;-23
2023/04/10 02:34:01;;;;;;;63.15;39.05;;;4.70;99.90;;;;;;5096867;28;20063;-23
2023/04/10 02:36:27;;;;;;;59.28;38.08;;;4.70;99.90;;;;;;5097548;28;20048;-23
2023/04/10 02:38:53;;;;;;;61.35;38.15;;;4.70;99.90;;;;;;5095699;28;20040;-23
2023/04/10 02:41:18;;;;;;;58.67;37.38;;;4.60;99.90;;;;;;5059304;28;20040;-23
2023/04/10 02:43:44;;;;;;;61.45;38.90;;;4.60;99.90;;;;;;5077930;28;20049;-23
2023/04/10 02:46:10;;;;;;;58.97;38.80;;;4.60;99.90;;;;;;5077597;28;20054;-23
2023/04/10 02:48:36;;;;;;;63.00;40.25;;;4.70;99.90;;;;;;5059450;28;20056;-23
2023/04/10 02:51:01;;;;;;;64.22;40.05;;;4.60;99.90;;;;;;5059227;28;20045;-24
2023/04/10 02:53:27;;;;;;;61.60;39.00;;;4.60;99.90;;;;;;5077484;28;20071;-23
2023/04/10 02:55:53;;;;;;;59.30;38.60;;;4.60;99.90;;;;;;5078389;28;20147;-23
2023/04/10 02:58:20;;;;;;;60.00;38.30;;;4.60;99.90;;;;;;5079084;28;20394;-23
2023/04/10 03:00:50;;;;;;;63.38;39.75;;;4.60;99.90;;;;;;5079514;28;20079;-23
2023/04/10 03:03:18;;;;;;;70.50;41.35;;;4.60;99.90;;;;;;5097596;28;20044;-23
2023/04/10 03:05:48;;;;;;;65.22;39.58;;;4.60;99.90;;;;;;5097006;28;20055;-23
2023/04/10 03:08:16;;;;;;;64.47;39.90;;;4.60;99.90;;;;;;5096987;28;20048;-23
2023/04/10 03:10:44;;;;;;;61.58;39.58;;;4.70;99.90;;;;;;5089377;28;20055;-23
2023/04/10 03:13:10;;;;;;;63.47;41.40;;;4.80;99.90;;;;;;5080369;28;20044;-23
2023/04/10 03:15:36;;;;;;;63.95;41.58;;;4.70;99.90;;;;;;5079332;28;20083;-23
2023/04/10 03:18:04;;;;;;;62.28;38.95;;;4.70;99.90;;;;;;5078857;28;20435;-23
2023/04/10 03:20:37;;;;;;;59.25;37.75;;;4.80;90.60;;;;;;5078768;28;20406;-23
2023/04/10 03:23:06;;;;;;;63.90;40.85;;;4.90;69.40;;;;;;5096806;28;20040;-23
2023/04/10 03:25:35;;;;;;;62.50;40.47;;;4.90;25.80;;;;;;5079333;28;20040;-23
2023/04/10 03:28:01;;;;;;;63.30;39.42;;;4.90;1.00;;;;;;5078472;28;20056;-23
2023/04/10 03:30:27;;;;;;;63.72;41.03;;;4.80;1.00;;;;;;5089931;28;20545;-23
2023/04/10 03:32:53;;;;;;;62.03;39.53;;;4.80;1.00;;;;;;5076193;28;20075;-23
2023/04/10 03:35:18;;;;;;;68.38;40.35;;;4.70;1.00;;;;;;5077028;28;20060;-23
2023/04/10 03:37:44;;;;;;;62.25;40.60;;;4.60;1.00;;;;;;5058291;28;20045;-23
2023/04/10 03:40:10;;;;;;;65.18;40.72;;;4.60;1.00;;;;;;5076059;28;20041;-23
2023/04/10 03:42:36;;;;;;;67.80;41.47;;;4.50;1.00;;;;;;5076053;28;20044;-23
2023/04/10 03:45:03;;;;;;;66.20;40.45;;;4.40;1.00;;;;;;5057686;28;20051;-23
2023/04/10 03:47:30;;;;;;;68.97;41.45;;;4.40;10.10;;;;;;5064447;28;20139;-23
2023/04/10 03:49:57;;;;;;;64.22;41.38;;;4.30;1.00;;;;;;5096164;28;20123;-23
2023/04/10 03:52:23;;;;;;;66.72;42.40;;;4.30;1.00;;;;;;5096099;28;20048;-23
2023/04/10 03:54:49;;;;;;;64.22;41.55;;;4.20;35.40;;;;;;5096071;28;20040;-23
2023/04/10 03:57:17;;;;;;;66.05;41.38;;;4.20;51.60;;;;;;5096042;28;20051;-23
2023/04/10 03:59:43;;;;;;;69.85;43.13;;;4.20;37.40;;;;;;5096145;28;20049;-24
2023/04/10 04:02:09;;;;;;;69.05;43.10;;;4.20;66.80;;;;;;5061137;28;20390;-23
2023/04/10 04:04:35;;;;;;;71.65;43.90;;;4.10;98.20;;;;;;5070199;28;20067;-23
2023/04/10 04:07:01;;;;;;;71.35;43.53;;;4.10;96.50;;;;;;5075610;28;20482;-23
2023/04/10 04:09:26;;;;;;;66.90;42.28;;;4.10;99.90;;;;;;5075539;28;20212;-23
2023/04/10 04:11:52;;;;;;;70.22;43.25;;;4.20;99.90;;;;;;5075338;28;20044;-24
2023/04/10 04:14:18;;;;;;;67.07;40.72;;;4.20;99.90;;;;;;5057830;28;20044;-23
2023/04/10 04:16:44;;;;;;;67.93;42.83;;;4.20;99.90;;;;;;5075404;28;20079;-23
2023/04/10 04:19:09;;;;;;;69.43;43.65;;;4.20;99.90;;;;;;5075307;28;20047;-23
2023/04/10 04:21:35;;;;;;;68.60;44.60;;;4.20;99.90;;;;;;5082667;28;20127;-23
2023/04/10 04:24:01;;;;;;;72.00;43.33;;;4.20;99.90;;;;;;5095436;28;20044;-23
2023/04/10 04:26:26;;;;;;;65.68;42.65;;;4.20;99.90;;;;;;5095166;28;20048;-23
2023/04/10 04:28:52;;;;;;;68.97;42.63;;;4.20;99.90;;;;;;5095448;28;20048;-23
2023/04/10 04:31:18;;;;;;;68.47;41.42;;;4.30;99.90;;;;;;5095677;28;20044;-23
2023/04/10 04:33:43;;;;;;;65.38;40.53;;;4.30;99.90;;;;;;5095380;28;20043;-23
2023/04/10 04:36:09;;;;;;;67.10;42.50;;;4.30;99.90;;;;;;5095498;28;20127;-23
2023/04/10 04:38:35;;;;;;;67.18;41.95;;;4.40;99.90;;;;;;5069452;28;20045;-23
2023/04/10 04:41:01;;;;;;;63.07;40.17;;;4.40;99.90;;;;;;5074891;28;20044;-23
2023/04/10 04:43:26;;;;;;;65.97;42.63;;;4.40;99.90;;;;;;5072962;28;20094;-23
2023/04/10 04:45:52;;;;;;;66.28;42.10;;;4.50;99.90;;;;;;5072631;28;20060;-23
2023/04/10 04:48:18;;;;;;;65.82;41.92;;;4.50;99.90;;;;;;5074754;28;20174;-23
2023/04/10 04:50:44;;;;;;;64.30;41.92;;;4.60;99.90;;;;;;5074727;28;20075;-23
2023/04/10 04:53:10;;;;;;;67.07;43.63;;;4.60;99.90;;;;;;5073239;28;20778;-23
2023/04/10 04:55:36;;;;;;;61.80;40.33;;;4.70;99.90;;;;;;5063747;28;20054;-23
2023/04/10 04:58:01;;;;;;;62.30;40.53;;;4.80;99.90;;;;;;5077570;28;20054;-23
2023/04/10 05:00:27;;;;;;;66.70;40.92;;;4.90;99.90;;;;;;5081727;28;20048;-23
2023/04/10 05:02:53;;;;;;;62.83;41.13;;;5.00;99.90;;;;;;5057173;28;20055;-23
2023/04/10 05:05:19;;;;;;;64.20;42.92;;;5.20;99.90;;;;;;5074487;28;20492;-23
2023/04/10 05:07:44;;;;;;;65.28;42.20;;;5.40;99.90;;;;;;5074395;28;20533;-23
2023/04/10 05:10:10;;;;;;;65.00;40.75;;;5.50;63.00;;;;;;5040152;28;20045;-23
2023/04/10 05:12:36;;;;;;;61.70;41.67;;;5.70;9.00;;;;;;5068861;28;20464;-23
2023/04/10 05:15:02;;;;;;;58.92;39.90;;;5.80;1.00;;;;;;5059697;28;20126;-24
2023/04/10 05:17:28;;;;;;;57.95;39.53;;;6.00;1.00;;;;;;5095087;28;20048;-24
2023/04/10 05:19:53;;;;;;;60.67;40.20;;;6.10;1.00;;;;;;5094361;28;20071;-23
2023/04/10 05:22:19;;;;;;;65.18;40.90;;;6.20;99.90;;;;;;5094372;28;20059;-23
2023/04/10 05:24:45;;;;;;;61.17;38.90;;;6.30;99.90;;;;;;5076753;28;20044;-23
2023/04/10 05:27:10;;;;;;;64.38;40.92;;;6.50;99.90;;;;;;5094577;28;20436;-23
2023/04/10 05:29:36;;;;;;;59.88;38.47;;;6.50;99.90;;;;;;5086190;28;20558;-23
2023/04/10 05:32:02;;;;;;;59.88;39.30;;;6.60;99.90;;;;;;5056705;28;20045;-23
2023/04/10 05:34:27;;;;;;;62.95;39.85;;;6.70;99.90;;;;;;5074174;28;20087;-24
2023/04/10 05:36:53;;;;;;;59.78;40.22;;;6.80;99.90;;;;;;5074203;28;20044;-24
2023/04/10 05:39:19;;;;;;;57.80;37.28;;;6.80;99.90;;;;;;5073819;28;20500;-24
2023/04/10 05:41:45;;;;;;;58.45;37.10;;;6.90;99.90;;;;;;5056606;28;20585;-24
2023/04/10 05:44:11;;;;;;;54.53;36.53;;;6.90;99.90;;;;;;5073816;28;20067;-24
2023/04/10 05:46:36;;;;;;;57.33;36.60;;;6.90;99.90;;;;;;5063985;28;20126;-24
2023/04/10 05:49:02;;;;;;;54.22;36.17;;;6.90;99.90;;;;;;5081101;28;20040;-23
2023/04/10 05:51:28;;;;;;;53.25;35.42;;;7.00;99.90;;;;;;5062012;28;20144;-24
2023/04/10 05:53:53;;;;;;;51.63;34.60;;;7.10;99.90;;;;;;5071367;28;20040;-23
2023/04/10 05:56:19;;;;;;;48.25;33.30;;;7.10;99.90;;;;;;5072861;28;20054;-23
2023/04/10 05:58:45;;;;;;;51.38;33.10;;;7.20;37.40;;;;;;5075484;28;20119;-24
2023/04/10 06:01:12;;;;;;;49.33;32.85;;;7.30;1.00;;;;;;5094088;28;20110;-24
2023/04/10 06:03:39;;;;;;;48.70;31.75;;;7.40;1.00;;;;;;5084122;28;20079;-24
2023/04/10 06:06:06;;;;;;;50.65;32.78;;;7.50;1.00;;;;;;5073419;28;20075;-24
2023/04/10 06:08:33;;;;;;;47.42;32.17;;;7.50;1.00;;;;;;5073542;28;20493;-23
2023/04/10 06:10:59;;;;;;;49.53;33.08;;;7.60;1.00;;;;;;5055681;28;20059;-24
2023/04/10 06:13:26;;;;;;;43.50;30.02;;;7.60;1.00;;;;;;5073245;28;20044;-23
2023/04/10 06:15:52;;;;;;;43.50;30.70;;;7.70;1.00;;;;;;5065997;28;20054;-23
2023/04/10 06:18:17;;;;;;;46.95;29.88;;;7.80;1.00;;;;;;5075597;28;20052;-24
2023/04/10 06:20:43;;;;;;;46.67;30.98;;;7.80;1.00;;;;;;5067387;28;20048;-23
2023/04/10 06:23:10;;;;;;;47.83;30.60;;;7.90;99.90;;;;;;5093897;28;20043;-24
2023/04/10 06:25:37;;;;;;;42.13;28.27;;;7.90;99.90;;;;;;5093533;28;20043;-24
2023/04/10 06:28:02;;;;;;;42.67;29.38;;;8.00;99.90;;;;;;5094679;28;20062;-24
2023/04/10 06:30:29;;;;;;;44.05;28.83;;;8.00;99.90;;;;;;5076182;28;20052;-24
2023/04/10 06:32:55;;;;;;;41.22;28.33;;;8.00;99.90;;;;;;5075008;28;20060;-23
2023/04/10 06:35:21;;;;;;;43.22;29.33;;;8.10;99.90;;;;;;5058244;28;20040;-24
2023/04/10 06:37:47;;;;;;;45.63;30.25;;;8.10;99.90;;;;;;5082252;28;20127;-24
2023/04/10 06:40:14;;;;;;;40.15;28.42;;;8.20;99.90;;;;;;5071789;28;20040;-24
2023/04/10 06:42:40;;;;;;;41.20;27.90;;;8.30;99.90;;;;;;5073196;28;20534;-24
2023/04/10 06:45:06;;;;;;;40.47;27.33;;;8.40;84.70;;;;;;5073882;28;20122;-24
2023/04/10 06:47:32;;;;;;;40.17;27.55;;;8.60;37.40;;;;;;5073035;28;20045;-24
2023/04/10 06:49:58;;;;;;;42.80;28.35;;;8.70;95.00;;;;;;5072551;28;20040;-24
2023/04/10 06:52:24;;;;;;;38.83;26.90;;;8.90;1.00;;;;;;5083647;28;20398;-24
2023/04/10 06:54:50;;;;;;;43.80;27.42;;;9.00;1.00;;;;;;5092306;28;20040;-24
2023/04/10 06:57:16;;;;;;;40.72;27.20;;;9.10;1.00;;;;;;5075800;28;20044;-24
2023/04/10 06:59:41;;;;;;;40.38;26.33;;;9.10;1.00;;;;;;5072924;28;20064;-24
2023/04/10 07:02:07;;;;;;;41.67;27.58;;;9.10;99.90;;;;;;5069902;28;20045;-24
2023/04/10 07:04:33;;;;;;;39.53;25.65;;;9.10;99.90;;;;;;5051498;28;20487;-24
2023/04/10 07:06:59;;;;;;;39.80;26.70;;;9.10;99.90;;;;;;5054101;28;20040;-24
2023/04/10 07:09:26;;;;;;;37.97;26.38;;;9.10;99.90;;;;;;5073326;28;20037;-24
2023/04/10 07:11:52;;;;;;;36.78;26.55;;;9.10;99.90;;;;;;5071302;28;20044;-24
2023/04/10 07:14:17;;;;;;;37.85;27.10;;;9.20;99.90;;;;;;5071084;28;20529;-24
2023/04/10 07:16:43;;;;;;;37.25;25.83;;;9.30;99.90;;;;;;5069428;28;20401;-24
2023/04/10 07:19:09;;;;;;;39.75;26.48;;;9.40;99.90;;;;;;5052997;28;20570;-23
2023/04/10 07:21:36;;;;;;;37.60;26.55;;;9.50;99.90;;;;;;5056270;28;20383;-24
2023/04/10 07:24:01;;;;;;;38.88;25.60;;;9.60;38.70;;;;;;5057799;28;20419;-24
2023/04/10 07:26:27;;;;;;;39.72;24.80;;;9.70;99.90;;;;;;5076642;28;20052;-24
2023/04/10 07:28:54;;;;;;;38.42;26.73;;;9.80;92.60;;;;;;5077106;28;20052;-25
2023/04/10 07:31:20;;;;;;;36.70;25.65;;;10.00;1.00;;;;;;5076193;28;20102;-24
2023/04/10 07:33:46;;;;;;;39.42;26.45;;;10.00;1.00;;;;;;5076146;28;20135;-24
2023/04/10 07:36:12;;;;;;;39.08;26.30;;;10.20;1.00;;;;;;5076170;28;20076;-24
2023/04/10 07:38:38;;;;;;;37.72;25.73;;;10.30;1.00;;;;;;5076048;28;20045;-24
2023/04/10 07:41:04;;;;;;;37.28;25.00;;;10.40;99.90;;;;;;5058350;28;20041;-24
2023/04/10 07:43:30;;;;;;;38.42;25.48;;;10.60;99.90;;;;;;5075666;28;20040;-24
2023/04/10 07:45:56;;;;;;;38.55;25.92;;;10.80;99.90;;;;;;5076031;28;20095;-24
2023/04/10 07:48:22;;;;;;;36.65;24.40;;;11.00;99.90;;;;;;5058124;28;20044;-24
2023/04/10 07:50:48;;;;;;;37.78;24.88;;;11.20;9.10;;;;;;5075879;28;20051;-25
2023/04/10 07:53:14;;;;;;;36.10;25.15;;;11.30;1.00;;;;;;5075875;28;20067;-24
2023/04/10 07:55:44;;;;;;;35.97;25.27;;;11.50;1.00;;;;;;5076287;28;20045;-24
2023/04/10 07:58:10;;;;;;;34.92;23.60;;;11.60;99.90;;;;;;5075546;28;20049;-25
2023/04/10 08:00:36;;;;;;;39.60;25.35;;;11.80;1.00;;;;;;5075759;28;20047;-24
2023/04/10 08:03:03;;;;;;;35.97;25.10;;;11.80;99.90;;;;;;5075661;28;20482;-24
2023/04/10 08:05:29;;;;;;;35.63;23.77;;;11.90;99.90;;;;;;5075569;28;20109;-24
2023/04/10 08:07:55;;;;;;;36.33;24.55;;;11.90;99.90;;;;;;5075507;28;20507;-24
2023/04/10 08:10:20;;;;;;;34.45;24.75;;;11.80;1.00;;;;;;5075823;28;20041;-25
2023/04/10 08:12:46;;;;;;;34.80;23.33;;;11.80;99.90;;;;;;5075614;28;20381;-24
2023/04/10 08:15:12;;;;;;;31.83;22.25;;;11.80;99.90;;;;;;5075741;28;20044;-24
2023/04/10 08:17:37;;;;;;;35.47;22.15;;;11.90;99.90;;;;;;5076027;28;20429;-24
2023/04/10 08:20:04;;;;;;;32.22;22.35;;;11.90;99.90;;;;;;5040920;28;20048;-24
2023/04/10 08:22:30;;;;;;;35.50;23.58;;;12.20;99.90;;;;;;5057522;28;20044;-24
2023/04/10 08:24:55;;;;;;;30.60;22.60;;;12.30;99.90;;;;;;5057541;28;20052;-24
2023/04/10 08:27:21;;;;;;;33.30;22.95;;;12.50;99.90;;;;;;5075431;28;20061;-24
2023/04/10 08:29:47;;;;;;;31.95;22.00;;;12.70;99.90;;;;;;5075204;28;20055;-24
2023/04/10 08:32:12;;;;;;;27.95;21.13;;;12.90;99.90;;;;;;5057347;28;20048;-25
2023/04/10 08:34:38;;;;;;;29.90;20.15;;;13.00;1.00;;;;;;5075691;28;20087;-25
2023/04/10 08:37:05;;;;;;;30.95;20.20;;;13.20;1.00;;;;;;5074808;28;20040;-25
2023/04/10 08:39:37;;;;;;;28.45;20.20;;;13.30;99.90;;;;;;5074888;28;20048;-25
2023/04/10 08:42:03;;;;;;;27.52;20.05;;;13.50;99.90;;;;;;5075308;28;20099;-25
2023/04/10 08:44:29;;;;;;;26.25;19.27;;;13.40;99.90;;;;;;5057001;28;20481;-25
2023/04/10 08:46:58;;;;;;;31.23;20.30;;;13.40;99.90;;;;;;5074861;28;20044;-25
2023/04/10 08:49:39;;;;;;;28.52;20.50;;;13.50;99.90;;;;;;5074495;28;20498;-24
2023/04/10 08:52:08;;;;;;;29.20;20.08;;;13.50;99.90;;;;;;5074495;28;20486;-25
2023/04/10 08:54:39;;;;;;;27.85;19.17;;;13.80;99.90;;;;;;5040632;28;20110;-25
2023/04/10 08:57:07;;;;;;;27.08;19.73;;;13.90;99.90;;;;;;5075000;28;20375;-25
2023/04/10 08:59:33;;;;;;;25.10;18.30;;;14.00;99.90;;;;;;5040945;28;20049;-25
2023/04/10 09:01:59;;;;;;;25.25;18.33;;;14.10;99.90;;;;;;5074595;28;20057;-25
2023/04/10 09:04:25;;;;;;;26.00;18.25;;;14.10;99.90;;;;;;5075311;28;20041;-25
2023/04/10 09:06:52;;;;;;;24.08;16.90;;;13.90;17.70;;;;;;5074482;28;20132;-25
2023/04/10 09:09:18;;;;;;;25.00;18.38;;;14.20;1.00;;;;;;5056567;28;20052;-25
2023/04/10 09:11:54;;;;;;;23.77;17.90;;;14.30;1.00;;;;;;5074900;28;20105;-25
2023/04/10 09:14:20;;;;;;;23.92;17.42;;;15.30;1.00;;;;;;5073997;28;20502;-25
2023/04/10 09:16:46;;;;;;;24.65;17.00;;;15.30;1.00;;;;;;5075053;28;20044;-25
2023/04/10 09:19:12;;;;;;;22.38;16.63;;;15.60;1.00;;;;;;5071858;28;20130;-24
2023/04/10 09:21:38;;;;;;;21.80;17.23;;;15.80;1.00;;;;;;5074047;28;20139;-25
2023/04/10 09:24:04;;;;;;;22.60;16.98;;;15.50;99.90;;;;;;5039821;28;20474;-25
2023/04/10 09:26:32;;;;;;;20.20;16.02;;;15.40;99.90;;;;;;5073933;28;20048;-25
2023/04/10 09:29:00;;;;;;;20.70;15.90;;;15.40;99.90;;;;;;5074046;28;20055;-25
2023/04/10 09:31:29;;;;;;;22.33;15.77;;;15.20;99.90;;;;;;5074072;28;20049;-25
2023/04/10 09:34:15;;;;;;;19.15;15.20;;;15.10;99.90;;;;;;5056254;28;20474;-25
2023/04/10 09:36:56;;;;;;;19.48;14.55;;;15.10;99.90;;;;;;5074299;28;20493;-25
2023/04/10 09:39:34;;;;;;;21.23;15.43;;;15.30;99.90;;;;;;5073917;28;20060;-25
2023/04/10 09:42:00;;;;;;;24.23;16.05;;;15.60;99.90;;;;;;5073759;28;20044;-25
2023/04/10 09:44:30;;;;;;;20.80;15.30;;;15.80;99.90;;;;;;5073807;28;20047;-25
2023/04/10 09:47:15;;;;;;;18.90;14.88;;;15.90;99.90;;;;;;5073824;28;20052;-25
2023/04/10 09:49:48;;;;;;;19.80;14.27;;;15.80;99.90;;;;;;5074023;28;20042;-25
2023/04/10 09:52:31;;;;;;;18.67;14.43;;;15.50;99.90;;;;;;5074560;28;20076;-25
2023/04/10 09:55:02;;;;;;;19.80;13.43;;;15.60;99.90;;;;;;5069924;28;20555;-25
2023/04/10 09:57:30;;;;;;;20.15;14.73;;;15.80;99.90;;;;;;5073318;28;20037;-25
2023/04/10 09:59:58;;;;;;;16.02;11.95;;;15.90;99.90;;;;;;5070790;28;20040;-25
2023/04/10 10:02:28;;;;;;;17.80;13.05;;;16.30;99.90;;;;;;5073040;28;20048;-25
2023/04/10 10:04:54;;;;;;;16.23;12.82;;;16.30;99.90;;;;;;5072404;28;20131;-25
2023/04/10 10:07:22;;;;;;;16.75;13.13;;;16.60;99.90;;;;;;5071410;28;20044;-24
2023/04/10 10:09:50;;;;;;;14.82;12.30;;;16.30;99.90;;;;;;5053288;28;20057;-25
2023/04/10 10:12:22;;;;;;;14.70;11.48;;;16.20;99.90;;;;;;5069614;28;20040;-24
2023/04/10 10:14:59;;;;;;;15.95;12.18;;;16.40;99.90;;;;;;5034055;28;20052;-25
2023/04/10 10:17:31;;;;;;;14.73;10.95;;;16.30;99.90;;;;;;5071308;28;20074;-25
2023/04/10 10:20:03;;;;;;;13.38;11.55;;;16.30;99.90;;;;;;5069865;28;20472;-24
2023/04/10 10:22:31;;;;;;;14.98;11.90;;;16.00;99.90;;;;;;5069843;28;20405;-24
2023/04/10 10:24:59;;;;;;;15.65;10.60;;;15.70;99.90;;;;;;5054449;28;20372;-25
2023/04/10 10:27:26;;;;;;;14.00;11.05;;;15.40;99.90;;;;;;5052330;28;20048;-24
2023/04/10 10:29:53;;;;;;;12.15;10.07;;;15.50;99.90;;;;;;5054198;28;20052;-25
2023/04/10 10:32:20;;;;;;;14.20;10.85;;;15.50;99.90;;;;;;5070114;28;20072;-24
2023/04/10 10:34:46;;;;;;;13.48;10.63;;;15.60;99.90;;;;;;5073376;28;20101;-25
2023/04/10 10:37:13;;;;;;;12.02;9.32;;;15.30;99.90;;;;;;5074144;28;20044;-25
2023/04/10 10:39:56;;;;;;;14.88;10.48;;;15.20;99.90;;;;;;5074022;28;20428;-25
2023/04/10 10:42:26;;;;;;;13.20;10.18;;;15.20;99.90;;;;;;5073245;28;20052;-25
2023/04/10 10:44:58;;;;;;;12.95;10.13;;;15.30;99.90;;;;;;5072966;28;20562;-25
2023/04/10 10:47:29;;;;;;;11.13;8.73;;;15.00;99.90;;;;;;5073311;28;20056;-25
2023/04/10 10:49:59;;;;;;;9.90;7.88;;;14.90;99.90;;;;;;5055446;28;20049;-25
2023/04/10 10:52:44;;;;;;;10.32;8.73;;;14.90;99.90;;;;;;5073384;28;20067;-25
2023/04/10 10:55:23;;;;;;;9.75;8.48;;;14.80;99.90;;;;;;5076888;28;20478;-25
2023/04/10 10:57:57;;;;;;;11.10;8.73;;;15.00;99.90;;;;;;5077480;28;20371;-25
2023/04/10 11:00:24;;;;;;;10.25;9.02;;;15.20;99.90;;;;;;5077397;28;20036;-25
2023/04/10 11:03:11;;;;;;;10.88;8.68;;;15.10;99.90;;;;;;5076865;28;20045;-25
2023/04/10 11:05:54;;;;;;;12.65;8.80;;;15.30;99.90;;;;;;5077355;28;20045;-25
2023/04/10 11:08:32;;;;;;;10.40;8.30;;;15.40;99.90;;;;;;5076405;28;20429;-25
2023/04/10 11:11:04;;;;;;;8.88;7.57;;;15.40;99.90;;;;;;5059327;28;20127;-25
2023/04/10 11:13:38;;;;;;;11.45;8.75;;;15.40;99.90;;;;;;5076431;28;20510;-25
2023/04/10 11:16:06;;;;;;;9.13;7.95;;;15.40;99.90;;;;;;5076378;28;20580;-25
2023/04/10 11:18:44;;;;;;;10.52;8.50;;;15.50;99.90;;;;;;5042190;28;20044;-25
2023/04/10 11:21:11;;;;;;;9.27;7.60;;;15.70;99.90;;;;;;5076476;28;20045;-25
2023/04/10 11:23:38;;;;;;;10.27;8.00;;;15.70;99.90;;;;;;5076982;28;20049;-25
2023/04/10 11:26:05;;;;;;;8.85;7.65;;;15.60;99.90;;;;;;5058559;28;20087;-25
2023/04/10 11:28:30;;;;;;;9.32;7.65;;;15.60;99.90;;;;;;5076938;28;20139;-25
2023/04/10 11:31:18;;;;;;;8.68;7.07;;;15.60;99.90;;;;;;5076324;28;20127;-25
2023/04/10 11:33:58;;;;;;;11.20;7.07;;;15.50;99.90;;;;;;5076889;28;20084;-25
2023/04/10 11:36:25;;;;;;;10.93;7.15;;;15.30;99.90;;;;;;5076907;28;20045;-25
2023/04/10 11:38:59;;;;;;;8.10;6.50;;;15.20;99.90;;;;;;5076172;28;20179;-25
2023/04/10 11:41:27;;;;;;;8.32;6.55;;;15.30;99.90;;;;;;5076736;28;20387;-25
2023/04/10 11:43:53;;;;;;;8.93;6.32;;;15.30;99.90;;;;;;5076080;28;20479;-25
2023/04/10 11:46:19;;;;;;;8.63;6.50;;;15.50;99.90;;;;;;5076051;28;20376;-25
2023/04/10 11:48:45;;;;;;;8.38;6.80;;;15.60;99.90;;;;;;5075949;28;20114;-25
2023/04/10 11:51:13;;;;;;;7.90;6.32;;;15.80;99.90;;;;;;5075908;28;20475;-25
2023/04/10 11:53:39;;;;;;;8.73;6.70;;;16.10;99.90;;;;;;5058176;28;20049;-25
2023/04/10 11:56:14;;;;;;;7.75;5.22;;;16.30;99.90;;;;;;5075857;28;20135;-25
2023/04/10 11:58:39;;;;;;;7.93;5.93;;;16.40;99.90;;;;;;5075773;28;20128;-25
2023/04/10 12:01:05;;;;;;;7.95;6.47;;;16.80;99.90;;;;;;5076027;28;20079;-26
2023/04/10 12:03:36;;;;;;;8.55;6.15;;;16.90;99.90;;;;;;5058046;28;20044;-25
2023/04/10 12:06:05;;;;;;;6.82;5.97;;;17.20;99.90;;;;;;5057761;28;20040;-25
2023/04/10 12:08:36;;;;;;;7.28;5.53;;;17.10;99.90;;;;;;5075590;28;20091;-26
2023/04/10 12:11:02;;;;;;;7.50;5.50;;;16.80;99.90;;;;;;5075595;28;20059;-26
2023/04/10 12:13:29;;;;;;;7.82;5.07;;;17.30;99.90;;;;;;5057687;28;20045;-26
2023/04/10 12:15:59;;;;;;;5.55;4.95;;;17.60;99.90;;;;;;5075445;28;20110;-25
2023/04/10 12:18:26;;;;;;;5.88;4.70;;;18.10;99.90;;;;;;5075326;28;20040;-25
2023/04/10 12:20:55;;;;;;;8.52;5.18;;;17.90;99.90;;;;;;5057730;28;20055;-25
2023/04/10 12:23:25;;;;;;;8.93;4.82;;;17.80;99.90;;;;;;5075349;28;20044;-25
2023/04/10 12:25:52;;;;;;;6.40;5.00;;;17.80;99.90;;;;;;5057917;28;20052;-25
2023/04/10 12:28:21;;;;;;;7.70;4.57;;;17.70;99.90;;;;;;5075036;28;20080;-26
2023/04/10 12:30:48;;;;;;;6.32;4.93;;;17.30;99.90;;;;;;5075822;28;20044;-25
2023/04/10 12:33:22;;;;;;;6.32;4.90;;;17.00;99.90;;;;;;5057494;28;20052;-25
2023/04/10 12:35:49;;;;;;;6.78;5.53;;;16.70;99.90;;;;;;5075933;28;20056;-25
2023/04/10 12:38:15;;;;;;;6.97;4.80;;;16.40;99.90;;;;;;5057343;28;20040;-25
2023/04/10 12:41:05;;;;;;;7.45;5.70;;;16.20;99.90;;;;;;5075409;28;20055;-25
2023/04/10 12:43:36;;;;;;;8.07;4.82;;;16.00;99.90;;;;;;5065271;28;20057;-25
2023/04/10 12:46:03;;;;;;;7.03;4.55;;;15.80;99.90;;;;;;5075148;28;20479;-25